Time;durP1;ratioP1;P1;durP2;ratioP2;P2;SDS_P1;SDS_P2;PMS_P1;PMS_P2;Temp;Humidity;BMP_temperature;BMP_pressure;BME280_temperature;BME280_humidity;BME280_pressure;Samples;Min_cycle;Max_cycle;Signal;HPM_P1;HPM_P2
2022/11/18 00:01:05;;;;;;;28.27;19.25;;;;;;;;;;5113319;28;20686;-63
2022/11/18 00:03:32;;;;;;;26.05;18.67;;;;;;;;;;5113399;28;20242;-63
2022/11/18 00:05:59;;;;;;;27.90;19.23;;;;;;;;;;5114839;28;20216;-62
2022/11/18 00:08:28;;;;;;;31.20;21.38;;;;;;;;;;5117328;28;20205;-63
2022/11/18 00:10:55;;;;;;;26.38;20.17;;;;;;;;;;5117582;28;20599;-62
2022/11/18 00:16:08;;;;;;;31.02;19.65;;;;;;;;;;5117430;28;20230;-62
2022/11/18 00:18:35;;;;;;;29.10;21.45;;;;;;;;;;5117226;28;20189;-62
2022/11/18 00:21:02;;;;;;;28.83;19.50;;;;;;;;;;5117248;28;20199;-62
2022/11/18 00:23:31;;;;;;;34.17;20.85;;;;;;;;;;5117197;28;20220;-62
2022/11/18 00:26:02;;;;;;;28.02;19.90;;;;;;;;;;5117094;28;20237;-62
2022/11/18 00:28:29;;;;;;;32.58;22.23;;;;;;;;;;5116985;28;20520;-62
2022/11/18 00:31:01;;;;;;;29.65;19.30;;;;;;;;;;5117021;28;20250;-62
2022/11/18 00:33:28;;;;;;;27.65;19.52;;;;;;;;;;5116962;28;20201;-61
2022/11/18 00:35:55;;;;;;;31.75;21.02;;;;;;;;;;5116896;28;20193;-62
2022/11/18 00:38:23;;;;;;;34.33;22.90;;;;;;;;;;5116971;28;20200;-62
2022/11/18 00:40:59;;;;;;;30.73;20.63;;;;;;;;;;5116836;28;20253;-62
2022/11/18 00:43:25;;;;;;;31.05;22.50;;;;;;;;;;5116839;28;20197;-62
2022/11/18 00:45:52;;;;;;;29.52;20.40;;;;;;;;;;5116731;28;20652;-62
2022/11/18 00:48:20;;;;;;;34.78;21.00;;;;;;;;;;5116609;28;20225;-62
2022/11/18 00:50:47;;;;;;;28.38;20.65;;;;;;;;;;5116684;28;20212;-62
2022/11/18 00:53:15;;;;;;;29.13;20.90;;;;;;;;;;5116737;28;20192;-61
2022/11/18 00:55:42;;;;;;;31.58;20.48;;;;;;;;;;5116710;28;20200;-62
2022/11/18 00:58:13;;;;;;;29.33;22.05;;;;;;;;;;5116580;28;20195;-61
2022/11/18 01:00:41;;;;;;;28.08;20.75;;;;;;;;;;5116756;28;20197;-63
2022/11/18 01:03:08;;;;;;;29.35;21.10;;;;;;;;;;5116517;28;20548;-61
2022/11/18 01:05:36;;;;;;;29.73;21.25;;;;;;;;;;5116513;28;20643;-61
2022/11/18 01:08:03;;;;;;;28.55;20.63;;;;;;;;;;5116316;28;20189;-61
2022/11/18 01:10:30;;;;;;;26.77;19.83;;;;;;;;;;5116271;28;20761;-61
2022/11/18 01:15:45;;;;;;;30.10;19.88;;;;;;;;;;5116233;28;20203;-61
2022/11/18 01:18:12;;;;;;;27.27;20.30;;;;;;;;;;5115416;28;20227;-63
2022/11/18 01:20:39;;;;;;;30.50;22.25;;;;;;;;;;5116074;28;20201;-61
2022/11/18 01:23:06;;;;;;;27.08;19.77;;;;;;;;;;5115951;28;20225;-62
2022/11/18 01:25:35;;;;;;;29.80;22.45;;;;;;;;;;5115919;28;20216;-62
2022/11/18 01:28:02;;;;;;;26.63;19.60;;;;;;;;;;5116101;28;20266;-62
2022/11/18 01:30:29;;;;;;;26.90;19.98;;;;;;;;;;5115932;28;20251;-62
2022/11/18 01:32:58;;;;;;;29.58;19.83;;;;;;;;;;5116262;28;20196;-62
2022/11/18 01:35:25;;;;;;;25.33;19.45;;;;;;;;;;5115864;28;20261;-62
2022/11/18 01:37:52;;;;;;;28.50;20.60;;;;;;;;;;5115624;28;20197;-62
2022/11/18 01:40:19;;;;;;;25.50;19.02;;;;;;;;;;5115989;28;20246;-62
2022/11/18 01:42:46;;;;;;;40.15;19.65;;;;;;;;;;5115594;28;20242;-62
2022/11/18 01:45:21;;;;;;;24.40;18.42;;;;;;;;;;5115885;28;20222;-62
2022/11/18 01:47:50;;;;;;;26.23;18.00;;;;;;;;;;5115406;28;20224;-62
2022/11/18 01:50:20;;;;;;;23.33;17.83;;;;;;;;;;5115393;28;20221;-62
2022/11/18 01:52:47;;;;;;;26.60;18.42;;;;;;;;;;5115752;28;20196;-63
2022/11/18 01:55:16;;;;;;;21.65;17.15;;;;;;;;;;5115546;28;20317;-62
2022/11/18 01:57:45;;;;;;;24.02;17.40;;;;;;;;;;5115610;28;20267;-62
2022/11/18 02:00:13;;;;;;;24.70;18.85;;;;;;;;;;5115479;28;20559;-62
2022/11/18 02:02:40;;;;;;;22.45;17.42;;;;;;;;;;5115278;28;20190;-62
2022/11/18 02:05:09;;;;;;;22.10;18.13;;;;;;;;;;5115607;28;20639;-62
2022/11/18 02:07:39;;;;;;;22.83;18.58;;;;;;;;;;5115483;28;20197;-62
2022/11/18 02:10:07;;;;;;;25.67;17.30;;;;;;;;;;5115239;28;20629;-62
2022/11/18 02:12:35;;;;;;;24.85;18.67;;;;;;;;;;5114947;28;20201;-64
2022/11/18 02:15:02;;;;;;;24.13;18.40;;;;;;;;;;5115117;28;20665;-62
2022/11/18 02:17:35;;;;;;;24.95;18.73;;;;;;;;;;5114885;28;20192;-62
2022/11/18 02:20:09;;;;;;;25.10;19.73;;;;;;;;;;5115041;28;20189;-62
2022/11/18 02:22:47;;;;;;;27.33;18.50;;;;;;;;;;5115139;28;20228;-62
2022/11/18 02:25:18;;;;;;;21.75;17.88;;;;;;;;;;5115044;28;20250;-62
2022/11/18 02:28:03;;;;;;;23.17;19.23;;;;;;;;;;5114787;28;20192;-62
2022/11/18 02:30:33;;;;;;;22.40;18.20;;;;;;;;;;5113701;28;20683;-62
2022/11/18 02:33:03;;;;;;;23.70;18.58;;;;;;;;;;5114801;28;20236;-62
2022/11/18 02:35:33;;;;;;;22.52;18.15;;;;;;;;;;5114797;28;20555;-62
2022/11/18 02:38:02;;;;;;;24.30;19.05;;;;;;;;;;5114766;28;20273;-62
2022/11/18 02:40:31;;;;;;;24.40;18.27;;;;;;;;;;5114468;28;20589;-62
2022/11/18 02:43:00;;;;;;;24.00;18.45;;;;;;;;;;5114382;28;20266;-62
2022/11/18 02:45:28;;;;;;;23.95;17.85;;;;;;;;;;5114550;28;20193;-61
2022/11/18 02:47:58;;;;;;;25.98;18.83;;;;;;;;;;5114302;28;20270;-65
2022/11/18 02:50:26;;;;;;;23.83;18.02;;;;;;;;;;5114253;28;20220;-62
2022/11/18 02:52:55;;;;;;;25.05;17.40;;;;;;;;;;5114262;28;20215;-62
2022/11/18 02:55:24;;;;;;;25.52;18.77;;;;;;;;;;5114232;28;20192;-62
2022/11/18 02:57:52;;;;;;;27.20;19.48;;;;;;;;;;5114491;28;20603;-62
2022/11/18 03:00:21;;;;;;;25.70;18.15;;;;;;;;;;5114288;28;20193;-62
2022/11/18 03:02:49;;;;;;;24.27;17.50;;;;;;;;;;5114148;28;20184;-62
2022/11/18 03:05:20;;;;;;;23.40;18.27;;;;;;;;;;5114045;28;20242;-63
2022/11/18 03:07:49;;;;;;;24.90;18.65;;;;;;;;;;5114001;28;20228;-62
2022/11/18 03:10:16;;;;;;;23.20;17.30;;;;;;;;;;5114000;28;20221;-62
2022/11/18 03:12:46;;;;;;;20.25;16.92;;;;;;;;;;5113899;28;20245;-62
2022/11/18 03:15:17;;;;;;;21.83;17.83;;;;;;;;;;5113958;28;20193;-62
2022/11/18 03:17:47;;;;;;;23.42;16.02;;;;;;;;;;5113801;28;20188;-61
2022/11/18 03:20:20;;;;;;;24.98;17.80;;;;;;;;;;5114017;28;20187;-61
2022/11/18 03:22:51;;;;;;;23.95;18.77;;;;;;;;;;5113986;28;20190;-62
2022/11/18 03:25:22;;;;;;;25.98;17.90;;;;;;;;;;5113794;28;20189;-62
2022/11/18 03:27:54;;;;;;;24.63;18.75;;;;;;;;;;5114483;28;20185;-61
2022/11/18 03:30:23;;;;;;;21.88;17.25;;;;;;;;;;5114104;28;20589;-61
2022/11/18 03:32:52;;;;;;;27.40;18.90;;;;;;;;;;5113854;28;20308;-61
2022/11/18 03:35:22;;;;;;;23.05;17.85;;;;;;;;;;5113739;28;20189;-62
2022/11/18 03:37:53;;;;;;;26.05;19.40;;;;;;;;;;5113449;28;20673;-61
2022/11/18 03:40:25;;;;;;;24.38;17.70;;;;;;;;;;5113223;28;20195;-61
2022/11/18 03:42:58;;;;;;;25.98;19.55;;;;;;;;;;5113442;28;20185;-62
2022/11/18 03:45:27;;;;;;;23.67;19.35;;;;;;;;;;5113728;28;20254;-62
2022/11/18 03:47:55;;;;;;;28.42;19.38;;;;;;;;;;5113313;28;20224;-66
2022/11/18 03:50:28;;;;;;;23.95;18.35;;;;;;;;;;5113384;28;20610;-61
2022/11/18 03:52:55;;;;;;;27.33;19.27;;;;;;;;;;5113368;28;20197;-61
2022/11/18 03:55:26;;;;;;;25.02;19.55;;;;;;;;;;5113321;28;20184;-62
2022/11/18 03:57:55;;;;;;;24.73;19.30;;;;;;;;;;5113631;28;20203;-64
2022/11/18 04:00:22;;;;;;;24.35;18.17;;;;;;;;;;5113521;28;20287;-61
2022/11/18 04:02:49;;;;;;;26.45;20.25;;;;;;;;;;5113240;28;20189;-62
2022/11/18 04:05:18;;;;;;;26.27;19.27;;;;;;;;;;5113290;28;20229;-62
2022/11/18 04:07:51;;;;;;;25.30;18.33;;;;;;;;;;5113250;28;20235;-62
2022/11/18 04:10:19;;;;;;;27.45;20.23;;;;;;;;;;5113265;28;20218;-62
2022/11/18 04:12:49;;;;;;;23.42;19.05;;;;;;;;;;5113477;28;20191;-62
2022/11/18 04:15:16;;;;;;;25.08;18.58;;;;;;;;;;5113371;28;20196;-62
2022/11/18 04:17:46;;;;;;;25.67;19.75;;;;;;;;;;5113222;28;20196;-62
2022/11/18 04:20:16;;;;;;;24.33;19.00;;;;;;;;;;5113096;28;20197;-63
2022/11/18 04:22:43;;;;;;;24.92;19.65;;;;;;;;;;5113254;28;20192;-62
2022/11/18 04:25:11;;;;;;;28.33;20.15;;;;;;;;;;5113093;28;20652;-63
2022/11/18 04:27:38;;;;;;;28.55;20.15;;;;;;;;;;5113258;28;20241;-63
2022/11/18 04:30:07;;;;;;;26.25;20.27;;;;;;;;;;5113032;28;20211;-62
2022/11/18 04:32:34;;;;;;;25.38;19.77;;;;;;;;;;5112986;28;20271;-62
2022/11/18 04:35:01;;;;;;;24.20;19.30;;;;;;;;;;5113016;28;20189;-63
2022/11/18 04:37:28;;;;;;;23.83;18.63;;;;;;;;;;5112886;28;20547;-63
2022/11/18 04:39:55;;;;;;;26.80;19.60;;;;;;;;;;5112919;28;20238;-63
2022/11/18 04:42:24;;;;;;;24.10;19.17;;;;;;;;;;5113034;28;20229;-63
2022/11/18 04:44:51;;;;;;;30.17;19.63;;;;;;;;;;5112801;28;20211;-63
2022/11/18 04:47:18;;;;;;;28.30;20.60;;;;;;;;;;5112719;28;20307;-63
2022/11/18 04:49:45;;;;;;;24.25;19.33;;;;;;;;;;5112876;28;20192;-63
2022/11/18 04:52:13;;;;;;;24.38;18.67;;;;;;;;;;5113270;28;20188;-63
2022/11/18 04:54:40;;;;;;;28.35;20.08;;;;;;;;;;5116758;28;20215;-62
2022/11/18 04:57:07;;;;;;;28.30;21.17;;;;;;;;;;5116574;28;20196;-63
2022/11/18 04:59:35;;;;;;;25.35;19.52;;;;;;;;;;5116587;28;20283;-62
2022/11/18 05:02:02;;;;;;;28.35;20.67;;;;;;;;;;5116423;28;20197;-62
2022/11/18 05:04:30;;;;;;;33.45;21.92;;;;;;;;;;5116374;28;20666;-62
2022/11/18 05:06:58;;;;;;;31.17;21.80;;;;;;;;;;5116333;28;20185;-62
2022/11/18 05:09:25;;;;;;;31.92;21.08;;;;;;;;;;5116329;28;20246;-62
2022/11/18 05:14:40;;;;;;;32.38;21.33;;;;;;;;;;5116459;28;20670;-62
2022/11/18 05:17:08;;;;;;;32.47;20.98;;;;;;;;;;5116363;28;20619;-62
2022/11/18 05:19:35;;;;;;;33.63;22.73;;;;;;;;;;5116232;28;20190;-62
2022/11/18 05:22:02;;;;;;;35.45;21.20;;;;;;;;;;5116398;28;20188;-62
2022/11/18 05:24:29;;;;;;;39.63;23.42;;;;;;;;;;5116097;28;20192;-62
2022/11/18 05:26:56;;;;;;;40.08;23.45;;;;;;;;;;5115995;28;20666;-62
2022/11/18 05:29:23;;;;;;;38.17;24.90;;;;;;;;;;5116032;28;20257;-62
2022/11/18 05:31:52;;;;;;;37.38;23.85;;;;;;;;;;5116083;28;20621;-62
2022/11/18 05:34:20;;;;;;;34.22;23.80;;;;;;;;;;5115831;28;20194;-62
2022/11/18 05:36:47;;;;;;;37.47;24.85;;;;;;;;;;5115863;28;20279;-62
2022/11/18 05:39:14;;;;;;;38.33;24.02;;;;;;;;;;5115949;28;20329;-62
2022/11/18 05:44:26;;;;;;;36.78;24.88;;;;;;;;;;5115711;28;20192;-62
2022/11/18 05:46:54;;;;;;;40.47;25.27;;;;;;;;;;5115391;28;20228;-62
2022/11/18 05:49:21;;;;;;;37.13;24.95;;;;;;;;;;5114817;28;20185;-62
2022/11/18 05:51:48;;;;;;;32.55;22.23;;;;;;;;;;5115556;28;20240;-62
2022/11/18 05:54:16;;;;;;;35.35;22.40;;;;;;;;;;5115454;28;20210;-62
2022/11/18 05:56:44;;;;;;;35.75;23.48;;;;;;;;;;5115800;28;20219;-62
2022/11/18 05:59:12;;;;;;;35.35;21.77;;;;;;;;;;5115693;28;20189;-62
2022/11/18 06:01:42;;;;;;;30.98;21.70;;;;;;;;;;5115686;28;20191;-62
2022/11/18 06:04:12;;;;;;;33.97;21.38;;;;;;;;;;5115021;28;20189;-62
2022/11/18 06:06:40;;;;;;;30.48;21.52;;;;;;;;;;5115213;28;20195;-62
2022/11/18 06:09:08;;;;;;;31.60;22.67;;;;;;;;;;5115524;28;20201;-62
2022/11/18 06:11:38;;;;;;;34.40;22.90;;;;;;;;;;5114884;28;20606;-62
2022/11/18 06:14:07;;;;;;;33.42;21.85;;;;;;;;;;5115237;28;20210;-62
2022/11/18 06:16:35;;;;;;;34.17;22.33;;;;;;;;;;5115161;28;20614;-63
2022/11/18 06:19:02;;;;;;;30.27;20.10;;;;;;;;;;5114963;28;20280;-63
2022/11/18 06:21:30;;;;;;;26.70;18.23;;;;;;;;;;5115180;28;20254;-62
2022/11/18 06:23:58;;;;;;;29.17;20.48;;;;;;;;;;5114947;28;20199;-62
2022/11/18 06:26:25;;;;;;;29.67;21.15;;;;;;;;;;5114894;28;20185;-62
2022/11/18 06:28:52;;;;;;;26.23;18.45;;;;;;;;;;5114874;28;20190;-62
2022/11/18 06:31:20;;;;;;;27.25;18.65;;;;;;;;;;5114735;28;20208;-62
2022/11/18 06:33:47;;;;;;;26.95;18.17;;;;;;;;;;5114521;28;20212;-62
2022/11/18 06:36:14;;;;;;;28.38;18.40;;;;;;;;;;5114778;28;20210;-62
2022/11/18 06:38:42;;;;;;;32.30;19.65;;;;;;;;;;5114666;28;20192;-62
2022/11/18 06:41:09;;;;;;;26.05;18.55;;;;;;;;;;5114725;28;20271;-62
2022/11/18 06:43:40;;;;;;;26.67;18.30;;;;;;;;;;5114547;28;20644;-62
2022/11/18 06:48:52;;;;;;;27.42;18.15;;;;;;;;;;5114376;28;20555;-62
2022/11/18 06:51:20;;;;;;;25.80;18.23;;;;;;;;;;5114276;28;20220;-62
2022/11/18 06:53:48;;;;;;;27.90;18.25;;;;;;;;;;5114214;28;20250;-62
2022/11/18 06:56:17;;;;;;;29.65;17.17;;;;;;;;;;5114142;28;20185;-62
2022/11/18 06:58:44;;;;;;;29.90;18.45;;;;;;;;;;5114131;28;20193;-62
2022/11/18 07:01:12;;;;;;;26.70;17.75;;;;;;;;;;5114499;28;20663;-62
2022/11/18 07:03:39;;;;;;;27.83;18.88;;;;;;;;;;5114510;28;20582;-62
2022/11/18 07:06:06;;;;;;;25.73;16.70;;;;;;;;;;5113941;28;20192;-62
2022/11/18 07:08:35;;;;;;;25.85;17.70;;;;;;;;;;5114376;28;20190;-62
2022/11/18 07:11:05;;;;;;;27.80;18.35;;;;;;;;;;5113743;28;20216;-63
2022/11/18 07:13:34;;;;;;;28.02;18.60;;;;;;;;;;5113836;28;20188;-62
2022/11/18 07:16:05;;;;;;;25.50;18.30;;;;;;;;;;5113437;28;20188;-62
2022/11/18 07:18:33;;;;;;;24.67;16.92;;;;;;;;;;5113981;28;20226;-62
2022/11/18 07:21:03;;;;;;;27.67;18.23;;;;;;;;;;5113861;28;20249;-62
2022/11/18 07:23:31;;;;;;;25.67;17.10;;;;;;;;;;5113740;28;20273;-62
2022/11/18 07:25:58;;;;;;;24.08;17.45;;;;;;;;;;5113523;28;20246;-62
2022/11/18 07:28:27;;;;;;;27.13;18.33;;;;;;;;;;5113072;28;20188;-63
2022/11/18 07:30:54;;;;;;;26.77;16.83;;;;;;;;;;5113429;28;20249;-62
2022/11/18 07:33:21;;;;;;;22.88;17.05;;;;;;;;;;5113974;28;20220;-62
2022/11/18 07:35:48;;;;;;;24.75;17.10;;;;;;;;;;5113708;28;20544;-61
2022/11/18 07:38:15;;;;;;;25.42;16.80;;;;;;;;;;5113481;28;20188;-62
2022/11/18 07:40:42;;;;;;;27.00;18.10;;;;;;;;;;5113536;28;20189;-61
2022/11/18 07:43:10;;;;;;;26.40;17.38;;;;;;;;;;5113436;28;20195;-61
2022/11/18 07:45:38;;;;;;;24.40;16.77;;;;;;;;;;5113466;28;20200;-61
2022/11/18 07:48:05;;;;;;;27.85;16.77;;;;;;;;;;5113294;28;20576;-61
2022/11/18 07:50:33;;;;;;;24.58;16.85;;;;;;;;;;5113454;28;20594;-61
2022/11/18 07:53:00;;;;;;;23.80;16.60;;;;;;;;;;5113156;28;20307;-61
2022/11/18 07:55:27;;;;;;;21.52;16.90;;;;;;;;;;5112957;28;20277;-61
2022/11/18 07:57:56;;;;;;;21.92;15.73;;;;;;;;;;5113322;28;20216;-61
2022/11/18 08:00:23;;;;;;;22.80;15.93;;;;;;;;;;5113254;28;20195;-61
2022/11/18 08:02:52;;;;;;;25.23;16.20;;;;;;;;;;5113603;28;20509;-62
2022/11/18 08:05:19;;;;;;;25.08;17.30;;;;;;;;;;5113094;28;20643;-62
2022/11/18 08:07:46;;;;;;;21.52;15.80;;;;;;;;;;5113375;28;20280;-62
2022/11/18 08:10:13;;;;;;;20.25;15.18;;;;;;;;;;5113041;28;20772;-62
2022/11/18 08:12:40;;;;;;;23.63;15.50;;;;;;;;;;5113210;28;20220;-61
2022/11/18 08:15:08;;;;;;;31.63;19.45;;;;;;;;;;5113121;28;20643;-61
2022/11/18 08:17:35;;;;;;;24.17;16.55;;;;;;;;;;5113152;28;20198;-61
2022/11/18 08:20:04;;;;;;;25.40;16.00;;;;;;;;;;5113067;28;20191;-62
2022/11/18 08:22:31;;;;;;;21.52;15.90;;;;;;;;;;5113292;28;20196;-62
2022/11/18 08:24:58;;;;;;;22.33;15.90;;;;;;;;;;5113216;28;20219;-61
2022/11/18 08:27:25;;;;;;;23.98;17.10;;;;;;;;;;5115034;28;20192;-61
2022/11/18 08:29:52;;;;;;;24.45;16.45;;;;;;;;;;5117031;28;20235;-64
2022/11/18 08:32:19;;;;;;;25.33;16.95;;;;;;;;;;5116597;28;20219;-64
2022/11/18 08:34:46;;;;;;;22.42;16.40;;;;;;;;;;5085501;28;20194;-59
2022/11/18 08:37:14;;;;;;;21.20;15.75;;;;;;;;;;5076058;28;20265;-57
2022/11/18 08:39:41;;;;;;;23.42;16.95;;;;;;;;;;5095043;28;20193;-60
2022/11/18 08:42:09;;;;;;;22.48;16.90;;;;;;;;;;5095802;28;20656;-60
2022/11/18 08:44:37;;;;;;;22.08;17.50;;;;;;;;;;5096551;28;20188;-61
2022/11/18 08:47:04;;;;;;;23.67;16.08;;;;;;;;;;5096166;28;20228;-62
2022/11/18 08:49:36;;;;;;;21.92;15.80;;;;;;;;;;5087605;28;20196;-59
2022/11/18 08:52:03;;;;;;;22.20;16.75;;;;;;;;;;5075976;28;20213;-59
2022/11/18 08:54:31;;;;;;;22.63;17.02;;;;;;;;;;5075963;28;20596;-60
2022/11/18 08:56:58;;;;;;;22.15;16.10;;;;;;;;;;5075876;28;20193;-60
2022/11/18 08:59:26;;;;;;;23.20;16.58;;;;;;;;;;5075739;28;20182;-61
2022/11/18 09:01:53;;;;;;;23.50;15.55;;;;;;;;;;5085714;28;20275;-62
2022/11/18 09:04:20;;;;;;;23.15;16.88;;;;;;;;;;5096593;28;20644;-60
2022/11/18 09:06:47;;;;;;;22.30;15.32;;;;;;;;;;5096342;28;20185;-60
2022/11/18 09:09:14;;;;;;;23.08;15.55;;;;;;;;;;5096550;28;20196;-60
2022/11/18 09:11:43;;;;;;;22.77;16.83;;;;;;;;;;5096022;28;20619;-58
2022/11/18 09:14:11;;;;;;;23.25;16.75;;;;;;;;;;5096258;28;20185;-64
2022/11/18 09:16:39;;;;;;;22.92;15.50;;;;;;;;;;5095911;28;20189;-57
2022/11/18 09:19:06;;;;;;;21.80;15.70;;;;;;;;;;5095627;28;20194;-61
2022/11/18 09:21:35;;;;;;;24.33;16.00;;;;;;;;;;5096119;28;20238;-61
2022/11/18 09:24:04;;;;;;;24.88;17.27;;;;;;;;;;5095838;28;20218;-62
2022/11/18 09:26:31;;;;;;;23.00;16.40;;;;;;;;;;5095511;28;20189;-63
2022/11/18 09:29:00;;;;;;;24.48;16.40;;;;;;;;;;5095925;28;20279;-61
2022/11/18 09:31:27;;;;;;;21.20;15.90;;;;;;;;;;5095688;28;20192;-61
2022/11/18 09:33:54;;;;;;;23.02;18.70;;;;;;;;;;5095761;28;20277;-63
2022/11/18 09:36:22;;;;;;;20.95;15.70;;;;;;;;;;5095674;28;20598;-66
2022/11/18 09:38:49;;;;;;;18.90;15.05;;;;;;;;;;5094793;28;20235;-62
2022/11/18 09:41:22;;;;;;;20.50;15.75;;;;;;;;;;5095134;28;20199;-61
2022/11/18 09:43:54;;;;;;;18.92;13.60;;;;;;;;;;5095424;28;20197;-59
2022/11/18 09:46:27;;;;;;;17.90;13.70;;;;;;;;;;5095016;28;20193;-60
2022/11/18 09:49:12;;;;;;;16.60;13.40;;;;;;;;;;5091875;28;20185;-66
2022/11/18 09:51:40;;;;;;;18.88;14.07;;;;;;;;;;5095005;28;20189;-59
2022/11/18 09:54:10;;;;;;;17.67;14.20;;;;;;;;;;5095250;28;20190;-60
2022/11/18 09:56:37;;;;;;;18.13;14.52;;;;;;;;;;5085753;28;20209;-62
2022/11/18 09:59:05;;;;;;;18.63;12.98;;;;;;;;;;5075484;28;20190;-60
2022/11/18 10:01:35;;;;;;;18.45;14.52;;;;;;;;;;5089062;28;20235;-61
2022/11/18 10:04:02;;;;;;;18.30;14.18;;;;;;;;;;5094540;28;20272;-67
2022/11/18 10:06:32;;;;;;;17.95;13.90;;;;;;;;;;5094833;28;20193;-61
2022/11/18 10:09:13;;;;;;;19.50;14.63;;;;;;;;;;5094877;28;20203;-64
2022/11/18 10:11:43;;;;;;;16.80;12.70;;;;;;;;;;5094708;28;20189;-63
2022/11/18 10:14:16;;;;;;;16.67;13.70;;;;;;;;;;5094549;28;20219;-64
2022/11/18 10:16:48;;;;;;;17.70;13.43;;;;;;;;;;5088344;28;20272;-62
2022/11/18 10:19:20;;;;;;;14.77;12.10;;;;;;;;;;5073984;28;20185;-61
2022/11/18 10:21:51;;;;;;;17.08;12.57;;;;;;;;;;5074280;28;20668;-63
2022/11/18 10:24:20;;;;;;;17.55;12.93;;;;;;;;;;5073732;28;20197;-62
2022/11/18 10:26:47;;;;;;;18.23;14.73;;;;;;;;;;5073516;28;20236;-63
2022/11/18 10:29:14;;;;;;;27.55;19.60;;;;;;;;;;5074985;28;20596;-63
2022/11/18 10:31:53;;;;;;;15.55;12.20;;;;;;;;;;5074553;28;20194;-64
2022/11/18 10:34:20;;;;;;;20.90;13.07;;;;;;;;;;5073758;28;20193;-61
2022/11/18 10:37:03;;;;;;;14.75;12.02;;;;;;;;;;5073588;28;20214;-58
2022/11/18 10:39:30;;;;;;;14.30;11.13;;;;;;;;;;5073055;28;20186;-61
2022/11/18 10:42:00;;;;;;;14.35;11.50;;;;;;;;;;5074008;28;20248;-61
2022/11/18 10:44:32;;;;;;;15.73;11.65;;;;;;;;;;5073851;28;20192;-62
2022/11/18 10:47:23;;;;;;;13.57;10.93;;;;;;;;;;5073021;28;20798;-62
2022/11/18 10:49:50;;;;;;;14.77;11.65;;;;;;;;;;5072749;28;20216;-62
2022/11/18 10:52:17;;;;;;;13.23;10.35;;;;;;;;;;5075980;28;20205;-61
2022/11/18 10:55:05;;;;;;;13.15;11.10;;;;;;;;;;5086360;28;20594;-67
2022/11/18 10:57:36;;;;;;;14.27;10.52;;;;;;;;;;5073339;28;20193;-65
2022/11/18 11:00:03;;;;;;;10.60;9.40;;;;;;;;;;5077732;28;20197;-63
2022/11/18 11:02:35;;;;;;;14.57;10.38;;;;;;;;;;5093664;28;20548;-64
2022/11/18 11:05:04;;;;;;;14.32;11.50;;;;;;;;;;5093501;28;20262;-61
2022/11/18 11:07:35;;;;;;;9.73;8.73;;;;;;;;;;5093561;28;20271;-63
2022/11/18 11:10:15;;;;;;;11.80;9.32;;;;;;;;;;5093475;28;20203;-63
2022/11/18 11:12:46;;;;;;;11.18;9.63;;;;;;;;;;5093392;28;20221;-64
2022/11/18 11:15:16;;;;;;;12.02;9.38;;;;;;;;;;5091614;28;20607;-66
2022/11/18 11:18:40;;;;;;;12.60;9.95;;;;;;;;;;5082841;28;20250;-65
2022/11/18 11:20:39;;;;;;;13.35;9.65;;;;;;;;;;5073018;28;20225;-58
2022/11/18 11:23:09;;;;;;;14.60;9.93;;;;;;;;;;5081253;28;20239;-62
2022/11/18 11:25:40;;;;;;;11.23;9.05;;;;;;;;;;5077685;28;20188;-60
2022/11/18 11:28:09;;;;;;;12.77;10.15;;;;;;;;;;5073189;28;20216;-60
2022/11/18 11:30:37;;;;;;;11.82;9.85;;;;;;;;;;5076058;28;20198;-58
2022/11/18 11:33:11;;;;;;;13.43;9.93;;;;;;;;;;5090206;28;20217;-61
2022/11/18 11:35:43;;;;;;;11.23;8.88;;;;;;;;;;5093175;28;20612;-61
2022/11/18 11:38:17;;;;;;;14.13;11.07;;;;;;;;;;5092413;28;20448;-61
2022/11/18 11:40:49;;;;;;;10.07;8.93;;;;;;;;;;5092884;28;20458;-62
2022/11/18 11:43:24;;;;;;;13.85;9.95;;;;;;;;;;5093245;28;20281;-61
2022/11/18 11:46:01;;;;;;;34.15;17.88;;;;;;;;;;5093027;28;20224;-62
2022/11/18 11:48:35;;;;;;;16.13;10.15;;;;;;;;;;5088336;28;20247;-61
2022/11/18 11:51:06;;;;;;;10.80;9.70;;;;;;;;;;5078254;28;20548;-60
2022/11/18 11:53:47;;;;;;;10.68;9.55;;;;;;;;;;5072827;28;20276;-67
2022/11/18 11:56:19;;;;;;;14.70;9.00;;;;;;;;;;5072902;28;20196;-62
2022/11/18 11:58:57;;;;;;;13.48;9.57;;;;;;;;;;5072318;28;20197;-61
2022/11/18 12:01:28;;;;;;;11.90;10.07;;;;;;;;;;5074177;28;20186;-59
2022/11/18 12:04:01;;;;;;;9.38;8.40;;;;;;;;;;5079318;28;20189;-64
2022/11/18 12:06:28;;;;;;;9.30;8.05;;;;;;;;;;5079351;28;20191;-64
2022/11/18 12:09:00;;;;;;;8.90;7.55;;;;;;;;;;5079393;28;20554;-59
2022/11/18 12:11:32;;;;;;;12.52;9.55;;;;;;;;;;5079249;28;20193;-60
2022/11/18 12:14:01;;;;;;;11.27;8.40;;;;;;;;;;5078950;28;20217;-60
2022/11/18 12:16:32;;;;;;;14.77;9.05;;;;;;;;;;5079030;28;20185;-60
2022/11/18 12:19:03;;;;;;;11.23;8.18;;;;;;;;;;5078560;28;20732;-60
2022/11/18 12:21:48;;;;;;;11.32;9.05;;;;;;;;;;5079124;28;20565;-60
2022/11/18 12:24:29;;;;;;;9.05;8.13;;;;;;;;;;5079357;28;20349;-60
2022/11/18 12:26:57;;;;;;;9.57;7.93;;;;;;;;;;5079410;28;20230;-60
2022/11/18 12:29:25;;;;;;;9.32;7.85;;;;;;;;;;5079087;28;20199;-60
2022/11/18 12:31:54;;;;;;;11.27;8.45;;;;;;;;;;5079135;28;20526;-60
2022/11/18 12:34:41;;;;;;;10.50;7.10;;;;;;;;;;5078844;28;20580;-60
2022/11/18 12:37:27;;;;;;;9.05;7.82;;;;;;;;;;5079241;28;20189;-60
2022/11/18 12:39:59;;;;;;;7.50;6.47;;;;;;;;;;5078977;28;20200;-61
2022/11/18 12:45:40;;;;;;;6.93;6.22;;;;;;;;;;5079129;28;20311;-61
2022/11/18 12:48:27;;;;;;;7.57;6.78;;;;;;;;;;5078974;28;20217;-60
2022/11/18 12:50:59;;;;;;;6.50;5.95;;;;;;;;;;5079248;28;20189;-60
2022/11/18 12:53:30;;;;;;;8.73;5.75;;;;;;;;;;5078981;28;20263;-60
2022/11/18 12:55:57;;;;;;;5.53;5.00;;;;;;;;;;5079109;28;20276;-60
2022/11/18 12:58:25;;;;;;;6.18;5.68;;;;;;;;;;5079084;28;20197;-60
2022/11/18 13:01:05;;;;;;;5.55;5.05;;;;;;;;;;5079309;28;20225;-60
2022/11/18 13:03:33;;;;;;;5.45;4.97;;;;;;;;;;5079130;28;20262;-59
2022/11/18 13:06:02;;;;;;;6.53;5.40;;;;;;;;;;5078985;28;20675;-62
2022/11/18 13:08:30;;;;;;;8.88;5.90;;;;;;;;;;5079245;28;20194;-60
2022/11/18 13:13:47;;;;;;;9.40;7.78;;;;;;;;;;5075651;28;20536;-60
2022/11/18 13:19:03;;;;;;;5.80;5.28;;;;;;;;;;5075733;28;20725;-60
2022/11/18 13:24:18;;;;;;;5.90;5.30;;;;;;;;;;5075522;28;20197;-63
2022/11/18 13:26:46;;;;;;;6.13;5.32;;;;;;;;;;5075647;28;20217;-63
2022/11/18 13:29:21;;;;;;;5.82;5.10;;;;;;;;;;5075457;28;20193;-60
2022/11/18 13:31:51;;;;;;;7.00;5.93;;;;;;;;;;5075513;28;20185;-60
2022/11/18 13:34:20;;;;;;;5.93;4.93;;;;;;;;;;5075176;28;20225;-60
2022/11/18 13:36:49;;;;;;;5.75;5.25;;;;;;;;;;5075151;28;20599;-60
2022/11/18 13:39:22;;;;;;;5.00;4.53;;;;;;;;;;5075381;28;20229;-61
2022/11/18 13:41:58;;;;;;;4.63;4.22;;;;;;;;;;5075070;28;20271;-61
2022/11/18 13:44:27;;;;;;;6.85;6.22;;;;;;;;;;5075584;28;20740;-61
2022/11/18 13:46:58;;;;;;;4.85;4.30;;;;;;;;;;5074796;28;20222;-63
2022/11/18 13:49:33;;;;;;;4.75;4.40;;;;;;;;;;5075233;28;20197;-60
2022/11/18 13:52:08;;;;;;;5.10;4.70;;;;;;;;;;5075112;28;20193;-61
2022/11/18 13:54:35;;;;;;;5.43;4.40;;;;;;;;;;5074949;28;20221;-61
2022/11/18 13:57:02;;;;;;;4.53;4.13;;;;;;;;;;5074828;28;20194;-61
2022/11/18 13:59:32;;;;;;;4.75;4.45;;;;;;;;;;5075097;28;20225;-61
2022/11/18 14:02:00;;;;;;;4.50;4.10;;;;;;;;;;5074899;28;20197;-61
2022/11/18 14:04:28;;;;;;;5.00;4.60;;;;;;;;;;5074991;28;20190;-61
2022/11/18 14:07:15;;;;;;;5.43;4.35;;;;;;;;;;5074719;28;20560;-60
2022/11/18 14:09:54;;;;;;;7.47;6.88;;;;;;;;;;5074661;28;20208;-60
2022/11/18 14:12:23;;;;;;;5.38;4.88;;;;;;;;;;5074817;28;20193;-61
2022/11/18 14:14:50;;;;;;;5.30;4.90;;;;;;;;;;5074293;28;20271;-60
2022/11/18 14:17:19;;;;;;;4.43;4.13;;;;;;;;;;5074469;28;20186;-61
2022/11/18 14:19:48;;;;;;;5.43;4.72;;;;;;;;;;5074405;28;20581;-60
2022/11/18 14:22:17;;;;;;;7.03;4.90;;;;;;;;;;5074309;28;20201;-61
2022/11/18 14:24:44;;;;;;;4.30;3.92;;;;;;;;;;5074051;28;20559;-60
2022/11/18 14:27:30;;;;;;;4.63;3.95;;;;;;;;;;5074359;28;20240;-60
2022/11/18 14:29:58;;;;;;;3.67;3.40;;;;;;;;;;5074265;28;20186;-61
2022/11/18 14:32:25;;;;;;;3.47;3.28;;;;;;;;;;5074008;28;20240;-61
2022/11/18 14:34:58;;;;;;;4.47;4.07;;;;;;;;;;5073865;28;20213;-60
2022/11/18 14:37:25;;;;;;;4.43;4.03;;;;;;;;;;5074261;28;20638;-60
2022/11/18 14:39:55;;;;;;;3.95;3.58;;;;;;;;;;5074013;28;20672;-60
2022/11/18 14:42:22;;;;;;;4.35;3.95;;;;;;;;;;5074032;28;20186;-60
2022/11/18 14:44:49;;;;;;;8.10;7.38;;;;;;;;;;5073991;28;20278;-60
2022/11/18 14:47:21;;;;;;;5.85;5.38;;;;;;;;;;5073729;28;20222;-61
2022/11/18 14:49:48;;;;;;;4.32;4.03;;;;;;;;;;5073688;28;20197;-60
2022/11/18 14:52:16;;;;;;;4.18;3.78;;;;;;;;;;5073826;28;20281;-60
2022/11/18 14:54:44;;;;;;;6.25;5.75;;;;;;;;;;5073526;28;20696;-60
2022/11/18 14:57:13;;;;;;;5.22;4.03;;;;;;;;;;5073530;28;20194;-60
2022/11/18 14:59:43;;;;;;;4.10;3.70;;;;;;;;;;5073443;28;20278;-60
2022/11/18 15:02:13;;;;;;;4.30;3.90;;;;;;;;;;5073474;28;20283;-59